createdAt,value
2023-02-25T00:02:26.696Z,4.50
2023-02-25T00:05:32.018Z,4.50
2023-02-25T00:08:35.924Z,4.50
2023-02-25T00:11:39.502Z,4.50
2023-02-25T00:14:48.615Z,4.50
2023-02-25T00:17:51.977Z,4.50
2023-02-25T00:20:55.861Z,4.60
2023-02-25T00:24:10.571Z,4.60
2023-02-25T00:27:18.387Z,4.60
2023-02-25T00:30:23.087Z,4.60
2023-02-25T00:33:28.036Z,4.60
2023-02-25T00:36:32.201Z,4.70
2023-02-25T00:39:43.265Z,4.70
2023-02-25T00:42:46.897Z,4.70
2023-02-25T00:45:51.735Z,4.70
2023-02-25T00:48:55.337Z,4.70
2023-02-25T00:52:00.068Z,4.70
2023-02-25T00:55:03.777Z,4.70
2023-02-25T00:58:07.796Z,4.70
2023-02-25T01:01:20.979Z,4.70
2023-02-25T01:04:25.108Z,4.70
2023-02-25T01:07:28.546Z,4.70
2023-02-25T01:10:31.807Z,4.70
2023-02-25T01:13:35.035Z,4.70
2023-02-25T01:16:40.441Z,4.60
2023-02-25T01:19:43.723Z,4.60
2023-02-25T01:22:47.930Z,4.50
2023-02-25T01:25:51.171Z,4.50
2023-02-25T01:28:55.810Z,4.40
2023-02-25T01:32:03.092Z,4.40
2023-02-25T01:35:07.111Z,4.40
2023-02-25T01:38:10.288Z,4.40
2023-02-25T01:41:13.535Z,4.40
2023-02-25T01:44:19.246Z,4.40
2023-02-25T01:47:23.842Z,4.30
2023-02-25T01:50:32.681Z,4.30
2023-02-25T01:53:39.492Z,4.30
2023-02-25T01:56:48.184Z,4.20
2023-02-25T01:59:52.877Z,4.20
2023-02-25T02:02:59.581Z,4.20
2023-02-25T02:06:09.627Z,4.10
2023-02-25T02:09:15.849Z,4.10
2023-02-25T02:12:19.335Z,4.10
2023-02-25T02:15:23.051Z,4.10
2023-02-25T02:18:31.917Z,4.10
2023-02-25T02:21:50.949Z,4.10
2023-02-25T02:25:33.873Z,4.10
2023-02-25T02:29:13.843Z,4.10
2023-02-25T02:32:29.499Z,4.10
2023-02-25T02:35:37.525Z,4.10
2023-02-25T02:38:49.477Z,4.10
2023-02-25T02:42:00.607Z,4.10
2023-02-25T02:45:12.683Z,4.10
2023-02-25T02:48:24.331Z,4.20
2023-02-25T02:51:33.430Z,4.20
2023-02-25T02:54:39.271Z,4.30
2023-02-25T02:57:43.266Z,4.20
2023-02-25T03:00:50.036Z,4.30
2023-02-25T03:04:00.827Z,4.30
2023-02-25T03:07:08.693Z,4.30
2023-02-25T03:10:17.384Z,4.30
2023-02-25T03:13:20.669Z,4.30
2023-02-25T03:16:29.011Z,4.30
2023-02-25T03:19:40.225Z,4.30
2023-02-25T03:22:47.206Z,4.30
2023-02-25T03:25:53.750Z,4.30
2023-02-25T03:28:59.862Z,4.30
2023-02-25T03:32:10.579Z,4.20
2023-02-25T03:35:20.165Z,4.20
2023-02-25T03:38:28.298Z,4.30
2023-02-25T03:41:36.887Z,4.20
2023-02-25T03:44:46.394Z,4.20
2023-02-25T03:47:50.163Z,4.20
2023-02-25T03:50:59.854Z,4.20
2023-02-25T03:54:03.879Z,4.20
2023-02-25T03:57:10.351Z,4.20
2023-02-25T04:00:19.138Z,4.20
2023-02-25T04:03:22.418Z,4.20
2023-02-25T04:06:27.058Z,4.20
2023-02-25T04:09:30.273Z,4.20
2023-02-25T04:12:33.653Z,4.20
2023-02-25T04:15:37.096Z,4.20
2023-02-25T04:18:40.376Z,4.20
2023-02-25T04:21:45.150Z,4.10
2023-02-25T04:24:48.397Z,4.20
2023-02-25T04:27:51.756Z,4.20
2023-02-25T04:30:55.265Z,4.20
2023-02-25T04:33:58.485Z,4.00
2023-02-25T04:37:04.688Z,3.90
2023-02-25T04:40:12.247Z,3.80
2023-02-25T04:43:15.467Z,3.60
2023-02-25T04:46:18.809Z,3.50
2023-02-25T04:49:23.655Z,3.50
2023-02-25T04:52:28.674Z,3.40
2023-02-25T04:55:32.725Z,3.40
2023-02-25T04:58:37.614Z,3.40
2023-02-25T05:01:41.294Z,3.40
2023-02-25T05:04:44.507Z,3.40
2023-02-25T05:07:49.190Z,3.40
2023-02-25T05:10:52.759Z,3.30
2023-02-25T05:13:57.196Z,3.40
2023-02-25T05:17:00.465Z,3.40
2023-02-25T05:20:07.099Z,3.40
2023-02-25T05:23:11.782Z,3.40
2023-02-25T05:26:17.088Z,3.40
2023-02-25T05:29:20.736Z,3.40
2023-02-25T05:32:23.951Z,3.40
2023-02-25T05:35:27.242Z,3.40
2023-02-25T05:38:31.788Z,3.40
2023-02-25T05:41:34.929Z,3.40
2023-02-25T05:44:38.184Z,3.30
2023-02-25T05:47:41.350Z,3.30
2023-02-25T05:50:44.468Z,3.30
2023-02-25T05:53:49.179Z,3.30
2023-02-25T05:56:53.275Z,3.30
2023-02-25T05:59:56.478Z,3.30
2023-02-25T06:02:59.713Z,3.30
2023-02-25T06:06:02.905Z,3.30
2023-02-25T06:09:10.260Z,3.30
2023-02-25T06:12:13.521Z,3.30
2023-02-25T06:15:16.822Z,3.30
2023-02-25T06:18:20.361Z,3.30
2023-02-25T06:21:23.577Z,3.30
2023-02-25T06:24:28.245Z,3.40
2023-02-25T06:27:32.206Z,3.30
2023-02-25T06:30:35.443Z,3.30
2023-02-25T06:33:39.407Z,3.20
2023-02-25T06:36:42.573Z,3.20
2023-02-25T06:39:47.255Z,3.20
2023-02-25T06:42:50.502Z,3.30
2023-02-25T06:45:54.191Z,3.20
2023-02-25T06:48:58.522Z,3.20
2023-02-25T06:52:01.765Z,3.20
2023-02-25T06:55:07.589Z,3.20
2023-02-25T06:58:10.891Z,3.20
2023-02-25T07:01:16.249Z,3.20
2023-02-25T07:04:20.598Z,3.20
2023-02-25T07:07:24.537Z,3.20
2023-02-25T07:10:29.604Z,3.10
2023-02-25T07:13:32.879Z,3.10
2023-02-25T07:16:36.218Z,3.10
2023-02-25T07:19:39.410Z,3.10
2023-02-25T07:22:43.216Z,3.20
2023-02-25T07:25:47.883Z,3.10
2023-02-25T07:28:51.190Z,3.10
2023-02-25T07:31:54.581Z,3.10
2023-02-25T07:34:58.012Z,3.00
2023-02-25T07:38:01.488Z,2.90
2023-02-25T07:41:07.819Z,2.90
2023-02-25T07:44:11.437Z,2.70
2023-02-25T07:47:14.671Z,2.50
2023-02-25T07:50:18.288Z,2.50
2023-02-25T07:53:22.614Z,2.60
2023-02-25T07:56:29.205Z,2.60
2023-02-25T07:59:34.029Z,2.60
2023-02-25T08:02:37.391Z,2.80
2023-02-25T08:05:40.728Z,2.80
2023-02-25T08:08:44.462Z,2.90
2023-02-25T08:11:49.191Z,2.90
2023-02-25T08:14:52.469Z,3.00
2023-02-25T08:17:55.959Z,3.10
2023-02-25T08:21:00.822Z,3.10
2023-02-25T08:24:07.947Z,3.00
2023-02-25T08:27:12.586Z,3.00
2023-02-25T08:30:16.993Z,2.90
2023-02-25T08:33:21.172Z,2.90
2023-02-25T08:36:27.231Z,2.10
2023-02-25T08:39:33.978Z,2.90
2023-02-25T08:42:38.630Z,2.90
2023-02-25T08:45:43.067Z,2.90
2023-02-25T08:48:46.293Z,3.00
2023-02-25T08:51:51.558Z,3.00
2023-02-25T08:54:54.724Z,3.10
2023-02-25T08:57:59.375Z,3.10
2023-02-25T09:01:02.791Z,3.20
2023-02-25T09:04:06.449Z,3.30
2023-02-25T09:07:09.670Z,3.30
2023-02-25T09:10:13.850Z,3.40
2023-02-25T09:13:18.455Z,3.60
2023-02-25T09:16:22.168Z,3.80
2023-02-25T09:19:25.419Z,3.90
2023-02-25T09:22:34.159Z,4.10
2023-02-25T09:25:39.918Z,4.10
2023-02-25T09:28:45.226Z,4.20
2023-02-25T09:31:48.570Z,4.40
2023-02-25T09:34:52.755Z,4.60
2023-02-25T09:37:55.986Z,4.60
2023-02-25T09:40:59.388Z,4.60
2023-02-25T09:44:08.679Z,4.60
2023-02-25T09:47:19.519Z,4.40
2023-02-25T09:50:26.133Z,4.40
2023-02-25T09:53:37.552Z,4.40
2023-02-25T09:56:40.827Z,4.40
2023-02-25T09:59:45.541Z,4.40
2023-02-25T10:02:55.274Z,4.50
2023-02-25T10:06:03.997Z,4.50
2023-02-25T10:09:16.606Z,4.70
2023-02-25T10:12:29.689Z,5.10
2023-02-25T10:15:53.314Z,5.20
2023-02-25T10:19:09.440Z,5.30
2023-02-25T10:22:23.670Z,5.70
2023-02-25T10:25:30.629Z,6.00
2023-02-25T10:28:35.906Z,5.80
2023-02-25T10:31:43.962Z,5.40
2023-02-25T10:34:47.787Z,5.30
2023-02-25T10:37:51.213Z,5.00
2023-02-25T10:40:57.901Z,4.90
2023-02-25T10:44:01.064Z,4.70
2023-02-25T10:47:11.144Z,4.60
2023-02-25T10:50:23.158Z,4.60
2023-02-25T10:53:27.676Z,4.60
2023-02-25T10:56:35.323Z,4.50
2023-02-25T10:59:39.984Z,4.60
2023-02-25T11:02:45.040Z,4.80
2023-02-25T11:05:48.433Z,5.20
2023-02-25T11:08:53.025Z,5.20
2023-02-25T11:16:49.644Z,5.00
2023-02-25T11:20:05.301Z,4.90
2023-02-25T11:23:20.772Z,5.20
2023-02-25T11:26:30.378Z,5.70
2023-02-25T11:29:36.483Z,5.80
2023-02-25T11:32:44.435Z,6.80
2023-02-25T11:35:57.185Z,7.00
2023-02-25T11:39:14.877Z,7.30
2023-02-25T11:42:24.400Z,7.70
2023-02-25T11:45:30.460Z,7.50
2023-02-25T11:48:48.594Z,7.10
2023-02-25T11:52:00.632Z,6.90
2023-02-25T11:55:17.752Z,6.60
2023-02-25T11:58:31.838Z,6.30
2023-02-25T12:01:43.835Z,5.90
2023-02-25T12:05:08.382Z,5.90
2023-02-25T12:08:22.826Z,6.60
2023-02-25T12:12:06.411Z,7.10
2023-02-25T12:15:50.269Z,6.90
2023-02-25T12:19:16.498Z,6.80
2023-02-25T12:22:58.681Z,7.70
2023-02-25T12:26:11.376Z,7.30
2023-02-25T12:29:34.852Z,7.50
2023-02-25T12:32:55.724Z,6.90
2023-02-25T12:36:15.604Z,6.40
2023-02-25T12:39:34.061Z,5.70
2023-02-25T12:43:02.086Z,5.70
2023-02-25T12:46:39.651Z,5.60
2023-02-25T12:50:05.960Z,5.60
2023-02-25T12:53:25.313Z,4.60
2023-02-25T12:56:57.208Z,3.70
2023-02-25T13:00:22.241Z,3.50
2023-02-25T13:03:43.140Z,3.60
2023-02-25T13:07:16.559Z,3.50
2023-02-25T13:10:35.574Z,3.50
2023-02-25T13:14:01.848Z,3.60
2023-02-25T13:17:43.510Z,3.60
2023-02-25T13:21:06.574Z,4.20
2023-02-25T13:24:34.710Z,4.90
2023-02-25T13:27:58.145Z,5.10
2023-02-25T13:31:09.997Z,5.30
2023-02-25T13:34:26.763Z,5.10
2023-02-25T13:37:42.925Z,5.10
2023-02-25T13:40:55.582Z,4.90
2023-02-25T13:44:25.659Z,5.20
2023-02-25T13:47:53.480Z,5.20
2023-02-25T13:51:08.178Z,5.20
2023-02-25T13:54:36.363Z,5.70
2023-02-25T13:57:55.579Z,6.00
2023-02-25T14:01:17.174Z,6.30
2023-02-25T14:04:49.588Z,6.60
2023-02-25T14:08:16.901Z,6.80
2023-02-25T14:11:51.348Z,6.90
2023-02-25T14:15:21.703Z,6.70
2023-02-25T14:18:36.060Z,6.00
2023-02-25T14:22:13.072Z,5.70
2023-02-25T14:25:29.076Z,5.40
2023-02-25T14:28:40.816Z,5.20
2023-02-25T14:31:57.124Z,5.00
2023-02-25T14:35:43.454Z,3.90
2023-02-25T14:39:07.162Z,2.20
2023-02-25T14:42:27.108Z,1.60
2023-02-25T14:45:36.081Z,1.40
2023-02-25T14:48:45.723Z,1.30
2023-02-25T14:52:02.406Z,1.40
2023-02-25T14:55:34.141Z,1.50
2023-02-25T14:58:56.444Z,1.60
2023-02-25T15:02:35.567Z,1.70
2023-02-25T15:06:04.236Z,1.80
2023-02-25T15:09:34.610Z,1.90
2023-02-25T15:12:53.995Z,2.00
2023-02-25T15:16:35.558Z,2.20
2023-02-25T15:20:05.108Z,2.10
2023-02-25T15:23:11.669Z,2.10
2023-02-25T15:26:25.218Z,2.20
2023-02-25T15:29:57.084Z,2.20
2023-02-25T15:33:23.862Z,2.20
2023-02-25T15:36:42.618Z,2.20
2023-02-25T15:39:52.210Z,2.30
2023-02-25T15:42:57.084Z,2.30
2023-02-25T15:46:33.251Z,2.30
2023-02-25T15:49:39.024Z,2.30
2023-02-25T15:52:58.761Z,2.40
2023-02-25T15:56:41.320Z,2.40
2023-02-25T15:59:47.055Z,2.40
2023-02-25T16:02:59.909Z,2.40
2023-02-25T16:06:07.192Z,2.40
2023-02-25T16:09:15.783Z,2.40
2023-02-25T16:12:19.959Z,2.30
2023-02-25T16:15:29.049Z,2.30
2023-02-25T16:18:36.990Z,2.20
2023-02-25T16:21:45.136Z,2.10
2023-02-25T16:24:51.866Z,2.10
2023-02-25T16:28:00.832Z,2.10
2023-02-25T16:31:13.893Z,2.00
2023-02-25T16:34:22.808Z,2.10
2023-02-25T16:37:34.668Z,2.20
2023-02-25T16:40:41.652Z,2.20
2023-02-25T16:43:45.867Z,2.20
2023-02-25T16:46:53.069Z,2.40
2023-02-25T16:49:59.419Z,2.40
2023-02-25T16:53:06.831Z,2.30
2023-02-25T16:56:21.212Z,2.20
2023-02-25T16:59:25.369Z,2.10
2023-02-25T17:02:28.793Z,2.10
2023-02-25T17:05:35.619Z,2.10
2023-02-25T17:08:46.479Z,2.00
2023-02-25T17:11:56.388Z,2.10
2023-02-25T17:15:02.179Z,2.10
2023-02-25T17:18:11.676Z,2.10
2023-02-25T17:21:25.318Z,2.00
2023-02-25T17:24:32.662Z,2.00
2023-02-25T17:27:37.989Z,1.90
2023-02-25T17:30:46.294Z,2.00
2023-02-25T17:33:51.923Z,1.90
2023-02-25T17:36:56.704Z,1.90
2023-02-25T17:40:02.383Z,1.80
2023-02-25T17:43:23.144Z,1.80
2023-02-25T17:46:36.115Z,1.80
2023-02-25T17:49:40.125Z,1.90
2023-02-25T17:52:49.566Z,1.80
2023-02-25T17:55:53.162Z,1.70
2023-02-25T17:59:04.608Z,1.70
2023-02-25T18:02:33.871Z,1.60
2023-02-25T18:05:50.185Z,1.60
2023-02-25T18:08:54.809Z,1.60
2023-02-25T18:12:00.630Z,1.60
2023-02-25T18:15:15.520Z,1.60
2023-02-25T18:18:23.103Z,1.70
2023-02-25T18:21:26.516Z,1.70
2023-02-25T18:24:33.134Z,1.70
2023-02-25T18:27:37.877Z,1.70
2023-02-25T18:30:43.702Z,1.80
2023-02-25T18:33:47.659Z,1.80
2023-02-25T18:36:51.048Z,1.80
2023-02-25T18:39:54.312Z,1.90
2023-02-25T18:42:57.670Z,1.90
2023-02-25T18:46:02.548Z,2.00
2023-02-25T18:49:06.107Z,2.00
2023-02-25T18:52:20.054Z,2.00
2023-02-25T18:55:25.791Z,2.00
2023-02-25T18:58:29.106Z,2.00
2023-02-25T19:01:34.582Z,2.00
2023-02-25T19:04:38.198Z,2.00
2023-02-25T19:07:41.730Z,2.10
2023-02-25T19:10:46.792Z,2.10
2023-02-25T19:13:50.325Z,2.10
2023-02-25T19:16:57.252Z,2.10
2023-02-25T19:20:01.243Z,2.10
2023-02-25T19:23:04.804Z,2.10
2023-02-25T19:26:08.646Z,2.20
2023-02-25T19:29:12.010Z,2.20
2023-02-25T19:32:17.832Z,2.20
2023-02-25T19:35:21.275Z,2.20
2023-02-25T19:38:24.676Z,2.10
2023-02-25T19:41:29.079Z,2.20
2023-02-25T19:44:33.501Z,2.20
2023-02-25T19:47:38.549Z,2.20
2023-02-25T19:50:42.778Z,2.20
2023-02-25T19:53:46.322Z,2.20
2023-02-25T19:56:49.894Z,2.10
2023-02-25T19:59:53.397Z,2.10
2023-02-25T20:02:58.130Z,2.00
2023-02-25T20:06:06.840Z,2.00
2023-02-25T20:09:11.252Z,1.90
2023-02-25T20:12:14.620Z,1.90
2023-02-25T20:15:17.965Z,1.90
2023-02-25T20:18:23.170Z,1.90
2023-02-25T20:21:27.702Z,2.00
2023-02-25T20:24:31.337Z,2.00
2023-02-25T20:27:37.051Z,2.10
2023-02-25T20:30:40.931Z,2.10
2023-02-25T20:33:46.448Z,2.10
2023-02-25T20:36:54.834Z,2.10
2023-02-25T20:40:02.035Z,2.10
2023-02-25T20:43:05.939Z,2.00
2023-02-25T20:46:23.838Z,2.00
2023-02-25T20:49:29.388Z,2.00
2023-02-25T20:52:33.093Z,2.10
2023-02-25T20:55:36.347Z,2.10
2023-02-25T20:58:40.471Z,2.10
2023-02-25T21:01:45.237Z,2.10
2023-02-25T21:04:51.575Z,2.10
2023-02-25T21:07:58.093Z,2.10
2023-02-25T21:11:01.588Z,2.10
2023-02-25T21:14:10.337Z,2.00
2023-02-25T21:17:16.269Z,1.90
2023-02-25T21:20:23.687Z,1.90
2023-02-25T21:23:28.701Z,1.80
2023-02-25T21:26:32.800Z,1.80
2023-02-25T21:29:36.889Z,1.80
2023-02-25T21:32:42.941Z,1.90
2023-02-25T21:35:54.588Z,2.00
2023-02-25T21:39:00.764Z,2.00
2023-02-25T21:42:06.637Z,2.00
2023-02-25T21:45:14.357Z,2.00
2023-02-25T21:48:17.720Z,2.00
2023-02-25T21:51:31.778Z,2.00
2023-02-25T21:54:35.277Z,2.00
2023-02-25T21:57:38.861Z,2.10
2023-02-25T22:00:43.071Z,2.10
2023-02-25T22:03:48.093Z,2.10
2023-02-25T22:06:53.004Z,2.10
2023-02-25T22:09:57.477Z,2.10
2023-02-25T22:13:00.760Z,2.10
2023-02-25T22:16:04.649Z,2.10
2023-02-25T22:19:08.093Z,2.10
2023-02-25T22:22:14.732Z,2.00
2023-02-25T22:25:19.544Z,1.90
2023-02-25T22:28:23.318Z,1.90
2023-02-25T22:31:27.460Z,1.90
2023-02-25T22:34:30.783Z,2.00
2023-02-25T22:37:35.520Z,2.00
2023-02-25T22:40:39.733Z,2.00
2023-02-25T22:43:43.021Z,2.00
2023-02-25T22:46:48.499Z,2.00
2023-02-25T22:49:51.891Z,1.90
2023-02-25T22:52:56.596Z,2.00
2023-02-25T22:56:02.639Z,1.90
2023-02-25T22:59:06.006Z,1.90
2023-02-25T23:02:09.209Z,1.90
2023-02-25T23:05:12.612Z,2.00
2023-02-25T23:08:17.356Z,2.00
2023-02-25T23:11:22.595Z,2.00
2023-02-25T23:14:27.992Z,2.00
2023-02-25T23:17:31.411Z,2.10
2023-02-25T23:20:35.942Z,2.00
2023-02-25T23:23:41.098Z,2.10
2023-02-25T23:26:45.640Z,2.10
2023-02-25T23:29:49.500Z,2.00
2023-02-25T23:32:52.717Z,2.10
2023-02-25T23:35:55.873Z,2.00
2023-02-25T23:39:02.762Z,2.10
2023-02-25T23:42:06.242Z,2.10
2023-02-25T23:45:11.699Z,2.10
2023-02-25T23:48:15.073Z,2.10
2023-02-25T23:51:18.677Z,2.10
2023-02-25T23:54:23.735Z,2.10
2023-02-25T23:57:26.962Z,2.10
